»·PEaware :: NGF6389 KHND-KVNY

NGF6389 :: KHND-KVNY

FLIGHT INFORMATION

Flight Status: Arrived
Operator: Unknown
More flights by this operator :: More flights under this callsign
Pilot: Charlton B. (28558)
Aircraft: CIRRUS VISIONJET
(SF50)
More flights by this aircraft type
Origin: KHND Henderson
United States
Destination: KVNY Van Nuys
United States
More flights between these airports :: More routes between these airports
Route: PALLY6 WHIGG KREME JANNY5
File this flight plan on PilotEdge
Remarks:
Altitude:
(Current/Filed)
26,000ft
Speed:
(Current/Filed)
200kts
Departed: 01-Oct-20 01:36 PM
Arrived: 01-Oct-20 02:36 PM
Distance/Time
Traveled:
196nm/0:59
Distance/Time
To Go:
Arrived

Flight Plot

Page will automatically refresh every two minutes.

Flight plan parsing failed; only flown route is shown


Map Options




Map Legend


Flown Route
Filed Route
Departure Airport
Arrival Airport
Navaid (VOR, NDB)
Fix

Horizontal Profiles

Position Reports

Time Latitude Longitude Heading Altitude Ground
Speed
01-Oct-20 13:11 35.976769 -115.137415 0 2414ft 0kts
01-Oct-20 13:12 35.976769 -115.137415 0 2414ft 0kts
01-Oct-20 13:13 35.976769 -115.137415 0 2414ft 0kts
01-Oct-20 13:14 35.976769 -115.137415 0 2414ft 0kts
01-Oct-20 13:15 35.976769 -115.137415 0 2414ft 0kts
01-Oct-20 13:16 35.976769 -115.137415 0 2414ft 0kts
01-Oct-20 13:17 35.976769 -115.137415 0 2414ft 0kts
01-Oct-20 13:18 35.976769 -115.137415 0 2414ft 0kts
01-Oct-20 13:19 35.976769 -115.137415 0 2414ft 0kts
01-Oct-20 13:20 35.976769 -115.137415 0 2414ft 0kts
01-Oct-20 13:21 35.976769 -115.137415 0 2414ft 0kts
01-Oct-20 13:21 35.976769 -115.137415 0 2414ft 0kts
01-Oct-20 13:23 35.976769 -115.137415 0 2414ft 0kts
01-Oct-20 13:24 35.976769 -115.137415 0 2414ft 0kts
01-Oct-20 13:25 35.976769 -115.137415 0 2414ft 0kts
01-Oct-20 13:25 35.976769 -115.137415 0 2414ft 0kts
01-Oct-20 13:26 35.976769 -115.137415 0 2414ft 0kts
01-Oct-20 13:28 35.976770 -115.137415 0 2414ft 0kts
01-Oct-20 13:28 35.976967 -115.136426 184 2415ft 3kts
01-Oct-20 13:29 35.972995 -115.136464 180 2431ft 21kts
01-Oct-20 13:30 35.967750 -115.136532 180 2455ft 17kts
01-Oct-20 13:31 35.963604 -115.136814 215 2470ft 11kts
01-Oct-20 13:32 35.963103 -115.136947 104 2470ft 0kts
01-Oct-20 13:33 35.963103 -115.136947 104 2470ft 0kts
01-Oct-20 13:34 35.963174 -115.135846 73 2473ft 15kts
01-Oct-20 13:35 35.981237 -115.135502 5 2636ft 143kts
01-Oct-20 13:36 36.004022 -115.093838 79 4772ft 175kts
01-Oct-20 13:37 36.008340 -115.030018 84 6889ft 198kts
01-Oct-20 13:38 35.971013 -114.984127 158 9008ft 215kts
01-Oct-20 13:39 35.914067 -114.962823 182 11109ft 217kts
01-Oct-20 13:40 35.863502 -115.000357 217 13210ft 213kts
01-Oct-20 13:41 35.819169 -115.044614 217 15287ft 199kts
01-Oct-20 13:42 35.778878 -115.084786 216 17358ft 172kts
01-Oct-20 13:43 35.753358 -115.126313 239 18930ft 153kts
01-Oct-20 13:44 35.731868 -115.174154 239 20033ft 163kts
01-Oct-20 13:45 35.709605 -115.223873 239 21100ft 174kts
01-Oct-20 13:46 35.684071 -115.279928 232 21933ft 202kts
01-Oct-20 13:47 35.646145 -115.333597 226 23065ft 209kts
01-Oct-20 13:48 35.607685 -115.386588 226 24282ft 207kts
01-Oct-20 13:49 35.569443 -115.439197 226 25414ft 206kts
01-Oct-20 13:50 35.530788 -115.492286 226 26188ft 222kts
01-Oct-20 13:51 35.483682 -115.552475 222 26187ft 261kts
01-Oct-20 13:52 35.431922 -115.614125 222 26185ft 262kts
01-Oct-20 13:53 35.378783 -115.677217 221 26182ft 269kts
01-Oct-20 13:54 35.324495 -115.741545 222 26172ft 273kts
01-Oct-20 13:55 35.269608 -115.806455 221 26160ft 275kts
01-Oct-20 13:56 35.214404 -115.871607 222 26147ft 277kts
01-Oct-20 13:57 35.159101 -115.936747 222 26137ft 277kts
01-Oct-20 13:58 35.103488 -116.002119 222 26137ft 278kts
01-Oct-20 13:59 35.047785 -116.067468 222 26137ft 278kts
01-Oct-20 14:00 34.990990 -116.133946 222 25493ft 300kts
01-Oct-20 14:01 34.927844 -116.207812 226 24178ft 323kts
01-Oct-20 14:02 34.887076 -116.300741 244 24135ft 302kts
01-Oct-20 14:03 34.851891 -116.391269 244 24121ft 290kts
01-Oct-20 14:04 34.817815 -116.478822 244 24028ft 288kts
01-Oct-20 14:05 34.786603 -116.573331 261 23122ft 305kts
01-Oct-20 14:06 34.776018 -116.675408 263 22398ft 313kts
01-Oct-20 14:07 34.765920 -116.779175 263 22110ft 301kts
01-Oct-20 14:08 34.756139 -116.878494 263 22022ft 293kts
01-Oct-20 14:09 34.746199 -116.977032 262 21750ft 294kts
01-Oct-20 14:10 34.736139 -117.075901 262 21482ft 297kts
01-Oct-20 14:11 34.725870 -117.175947 262 21215ft 299kts
01-Oct-20 14:12 34.715492 -117.276257 262 20942ft 300kts
01-Oct-20 14:13 34.704974 -117.377114 262 20667ft 301kts
01-Oct-20 14:14 34.694537 -117.476347 262 20409ft 294kts
01-Oct-20 14:15 34.683849 -117.577192 262 19532ft 311kts
01-Oct-20 14:16 34.672565 -117.683594 262 18017ft 316kts
01-Oct-20 14:17 34.662307 -117.779984 262 15872ft 268kts
01-Oct-20 14:18 34.653117 -117.865626 262 14132ft 241kts
01-Oct-20 14:19 34.644343 -117.946253 262 13257ft 244kts
01-Oct-20 14:20 34.635684 -118.025204 262 13048ft 223kts
01-Oct-20 14:21 34.624136 -118.096189 255 13113ft 205kts
01-Oct-20 14:22 34.609012 -118.164791 255 12365ft 234kts
01-Oct-20 14:23 34.591174 -118.244914 255 10560ft 242kts
01-Oct-20 14:24 34.574352 -118.320170 255 8855ft 222kts
01-Oct-20 14:25 34.559290 -118.387304 255 8078ft 186kts
01-Oct-20 14:26 34.543187 -118.459183 255 7420ft 265kts
01-Oct-20 14:27 34.496422 -118.508807 199 6216ft 210kts
01-Oct-20 14:28 34.453448 -118.513514 171 6082ft 114kts
01-Oct-20 14:29 34.416173 -118.509939 173 5460ft 155kts
01-Oct-20 14:30 34.370897 -118.505685 173 4440ft 168kts
01-Oct-20 14:31 34.324150 -118.501240 174 3354ft 169kts
01-Oct-20 14:32 34.277454 -118.496808 175 2274ft 166kts
01-Oct-20 14:33 34.236602 -118.492923 175 1364ft 113kts
01-Oct-20 14:34 34.212002 -118.490669 175 811ft 67kts
01-Oct-20 14:35 34.203694 -118.490810 211 806ft 1kts
01-Oct-20 14:36 34.202994 -118.491807 30 806ft 0kts

Navigation Log

Ident Type
Flight plan parsing failed, navigation log unavailable